createdAt,value
2022-11-13T00:00:34.504Z,987.67
2022-11-13T00:07:15.204Z,987.71
2022-11-13T00:13:39.675Z,987.66
2022-11-13T00:20:16.324Z,987.66
2022-11-13T00:26:47.847Z,987.59
2022-11-13T00:33:46.151Z,987.53
2022-11-13T00:40:01.988Z,987.47
2022-11-13T00:46:27.532Z,987.46
2022-11-13T00:52:55.267Z,987.38
2022-11-13T00:59:21.534Z,987.39
2022-11-13T01:05:47.922Z,987.4
2022-11-13T01:12:13.185Z,987.45
2022-11-13T01:18:39.629Z,987.37
2022-11-13T01:25:09.527Z,987.29
2022-11-13T01:31:35.686Z,987.27
2022-11-13T01:37:58.924Z,987.25
2022-11-13T01:44:30.048Z,987.22
2022-11-13T01:51:17.759Z,987.21
2022-11-13T01:58:00.531Z,987.09
2022-11-13T02:04:37.498Z,987.06
2022-11-13T02:11:12.669Z,986.98
2022-11-13T02:17:48.774Z,987.04
2022-11-13T02:24:55.905Z,986.91
2022-11-13T02:31:29.641Z,986.9
2022-11-13T02:38:10.064Z,986.86
2022-11-13T02:44:35.586Z,986.84
2022-11-13T02:51:10.761Z,986.84
2022-11-13T02:57:43.592Z,986.77
2022-11-13T03:04:19.587Z,986.68
2022-11-13T03:10:52.051Z,986.61
2022-11-13T03:17:22.559Z,986.52
2022-11-13T03:23:47.599Z,986.49
2022-11-13T03:30:10.655Z,986.42
2022-11-13T03:36:38.168Z,986.39
2022-11-13T03:43:03.601Z,986.3
2022-11-13T03:49:36.077Z,986.24
2022-11-13T03:55:57.610Z,986.22
2022-11-13T04:02:20.528Z,986.25
2022-11-13T04:08:40.788Z,986.14
2022-11-13T04:15:06.074Z,986.07
2022-11-13T04:21:28.426Z,986.04
2022-11-13T04:27:48.993Z,986.01
2022-11-13T04:34:19.637Z,985.93
2022-11-13T04:40:39.971Z,985.87
2022-11-13T04:47:07.784Z,985.86
2022-11-13T04:53:27.649Z,985.78
2022-11-13T04:59:50.541Z,985.75
2022-11-13T05:06:12.810Z,985.74
2022-11-13T05:12:37.708Z,985.76
2022-11-13T05:19:02.368Z,985.76
2022-11-13T05:25:31.800Z,985.65
2022-11-13T05:31:53.948Z,985.71
2022-11-13T05:38:15.656Z,985.61
2022-11-13T05:44:45.080Z,985.56
2022-11-13T05:51:05.714Z,985.54
2022-11-13T05:57:31.662Z,985.47
2022-11-13T06:03:56.729Z,985.34
2022-11-13T06:10:26.318Z,985.33
2022-11-13T06:16:58.071Z,985.33
2022-11-13T06:23:28.115Z,985.24
2022-11-13T06:29:55.727Z,985.12
2022-11-13T06:36:17.542Z,985.1
2022-11-13T06:42:45.881Z,985.06
2022-11-13T06:49:17.666Z,984.97
2022-11-13T06:55:43.681Z,984.98
2022-11-13T07:02:11.399Z,984.93
2022-11-13T07:08:35.696Z,984.86
2022-11-13T07:15:10.832Z,984.86
2022-11-13T07:21:31.837Z,984.88
2022-11-13T07:27:51.712Z,984.8
2022-11-13T07:34:31.712Z,984.73
2022-11-13T07:40:58.402Z,984.7
2022-11-13T07:47:31.304Z,984.64
2022-11-13T07:53:56.033Z,984.59
2022-11-13T08:00:19.835Z,984.58
2022-11-13T08:06:51.415Z,984.55
2022-11-13T08:13:15.714Z,984.51
2022-11-13T08:19:48.260Z,984.5
2022-11-13T08:26:15.748Z,984.46
2022-11-13T08:32:42.733Z,984.5
2022-11-13T08:39:07.069Z,984.46
2022-11-13T08:45:36.229Z,984.4
2022-11-13T08:52:02.661Z,984.3
2022-11-13T08:58:29.462Z,984.18
2022-11-13T09:05:00.772Z,984.13
2022-11-13T09:11:28.691Z,984.06
2022-11-13T09:17:53.888Z,984.03
2022-11-13T09:24:21.897Z,983.95
2022-11-13T09:30:48.675Z,983.98
2022-11-13T09:37:27.887Z,983.98
2022-11-13T09:44:06.680Z,983.96
2022-11-13T09:51:09.067Z,983.85
2022-11-13T09:58:11.950Z,983.79
2022-11-13T10:05:07.779Z,983.67
2022-11-13T10:12:16.802Z,983.59
2022-11-13T10:19:16.325Z,983.53
2022-11-13T10:26:15.795Z,983.5
2022-11-13T10:32:54.680Z,983.32
2022-11-13T10:39:52.975Z,983.22
2022-11-13T10:46:50.839Z,983.04
2022-11-13T10:53:33.729Z,982.93
2022-11-13T11:00:24.832Z,982.72
2022-11-13T11:07:21.662Z,982.46
2022-11-13T11:14:01.757Z,982.34
2022-11-13T11:21:00.980Z,982.2
2022-11-13T11:27:58.769Z,982.06
2022-11-13T11:35:01.878Z,981.9
2022-11-13T11:42:21.761Z,981.75
2022-11-13T11:49:10.772Z,981.72
2022-11-13T11:56:09.404Z,981.74
2022-11-13T12:03:19.204Z,981.65
2022-11-13T12:10:43.652Z,981.56
2022-11-13T12:17:40.932Z,981.43
2022-11-13T12:24:55.427Z,981.28
2022-11-13T12:32:09.065Z,981.28
2022-11-13T12:39:09.395Z,981.27
2022-11-13T12:46:07.701Z,981.19
2022-11-13T12:52:58.230Z,981.22
2022-11-13T13:00:06.787Z,981.18
2022-11-13T13:07:20.563Z,981.1
2022-11-13T13:14:20.531Z,980.99
2022-11-13T13:21:13.679Z,980.85
2022-11-13T13:28:05.945Z,980.72
2022-11-13T13:35:08.157Z,980.6
2022-11-13T13:42:11.582Z,980.64
2022-11-13T13:49:16.955Z,980.49
2022-11-13T13:56:09.510Z,980.43
2022-11-13T14:02:58.071Z,980.18
2022-11-13T14:09:45.117Z,980.08
2022-11-13T14:16:34.847Z,980.07
2022-11-13T14:23:31.110Z,980.08
2022-11-13T14:30:28.548Z,979.9
2022-11-13T14:37:14.109Z,979.72
2022-11-13T14:44:14.964Z,979.67
2022-11-13T14:51:28.703Z,979.7
2022-11-13T14:58:29.981Z,979.69
2022-11-13T15:05:17.959Z,979.59
2022-11-13T15:11:58.258Z,979.54
2022-11-13T15:18:35.641Z,979.53
2022-11-13T15:25:17.021Z,979.56
2022-11-13T15:31:55.753Z,979.49
2022-11-13T15:38:34.714Z,979.38
2022-11-13T15:45:12.433Z,979.23
2022-11-13T15:51:41.586Z,979.13
2022-11-13T15:58:13.983Z,979.09
2022-11-13T16:04:58.242Z,979
2022-11-13T16:11:35.352Z,978.87
2022-11-13T16:18:11.167Z,978.87
2022-11-13T16:24:51.386Z,978.93
2022-11-13T16:31:34.551Z,978.9
2022-11-13T16:38:13.899Z,978.88
2022-11-13T16:44:51.095Z,978.9
2022-11-13T16:51:26.851Z,978.93
2022-11-13T16:57:53.378Z,978.92
2022-11-13T17:04:21.068Z,979.02
2022-11-13T17:11:01.422Z,979.07
2022-11-13T17:17:33.079Z,978.94
2022-11-13T17:24:09.229Z,978.99
2022-11-13T17:30:36.794Z,979.07
2022-11-13T17:37:12.180Z,978.95
2022-11-13T17:43:40.749Z,978.99
2022-11-13T17:50:09.270Z,978.89
2022-11-13T17:56:57.727Z,978.93
2022-11-13T18:03:22.325Z,978.97
2022-11-13T18:10:01.876Z,978.97
2022-11-13T18:16:32.928Z,978.92
2022-11-13T18:23:06.101Z,978.85
2022-11-13T18:29:37.067Z,978.86
2022-11-13T18:36:12.208Z,978.82
2022-11-13T18:42:41.900Z,978.75
2022-11-13T18:49:16.616Z,978.69
2022-11-13T18:55:47.418Z,978.67
2022-11-13T19:02:34.818Z,978.61
2022-11-13T19:09:07.758Z,978.52
2022-11-13T19:15:48.162Z,978.44
2022-11-13T19:22:31.280Z,978.44
2022-11-13T19:29:09.422Z,978.41
2022-11-13T19:35:36.173Z,978.3
2022-11-13T19:42:06.729Z,978.23
2022-11-13T19:48:28.500Z,978.18
2022-11-13T19:54:55.317Z,978.17
2022-11-13T20:01:27.748Z,978.14
2022-11-13T20:08:03.326Z,978.1
2022-11-13T20:14:26.736Z,978.07
2022-11-13T20:20:58.580Z,978.1
2022-11-13T20:27:28.843Z,978.11
2022-11-13T20:34:00.357Z,978.04
2022-11-13T20:40:21.094Z,978.01
2022-11-13T20:46:55.352Z,978.02
2022-11-13T20:53:20.323Z,978.01
2022-11-13T20:59:50.115Z,977.95
2022-11-13T21:06:18.408Z,977.94
2022-11-13T21:12:50.594Z,977.96
2022-11-13T21:19:14.076Z,977.94
2022-11-13T21:25:39.180Z,977.89
2022-11-13T21:32:11.162Z,977.84
2022-11-13T21:38:42.643Z,977.73
2022-11-13T21:45:10.630Z,977.69
2022-11-13T21:51:40.648Z,977.57
2022-11-13T21:58:05.151Z,977.5
2022-11-13T22:04:36.355Z,977.45
2022-11-13T22:11:11.238Z,977.43
2022-11-13T22:17:38.543Z,977.46
2022-11-13T22:24:21.414Z,977.42
2022-11-13T22:30:46.628Z,977.41
2022-11-13T22:37:20.564Z,977.34
2022-11-13T22:43:54.370Z,977.27
2022-11-13T22:50:17.290Z,977.14
2022-11-13T22:56:49.178Z,977.04
2022-11-13T23:03:16.483Z,976.97
2022-11-13T23:09:48.315Z,976.92
2022-11-13T23:16:23.524Z,976.92
2022-11-13T23:22:48.389Z,976.82
2022-11-13T23:29:12.336Z,976.76
2022-11-13T23:35:48.591Z,976.66
2022-11-13T23:42:13.178Z,976.59
2022-11-13T23:48:42.419Z,976.6
2022-11-13T23:55:03.231Z,976.51
